Time;durP1;ratioP1;P1;durP2;ratioP2;P2;SDS_P1;SDS_P2;PMS_P1;PMS_P2;Temp;Humidity;BMP_temperature;BMP_pressure;BME280_temperature;BME280_humidity;BME280_pressure;Samples;Min_cycle;Max_cycle;Signal;HPM_P1;HPM_P2
2022/08/31 00:06:18;;;;;;;6.13;5.68;;;;;;;17.39;100.00;96736.19;5103441;28;20201;-52
2022/08/31 00:08:45;;;;;;;7.78;5.40;;;;;;;17.39;100.00;96736.97;5102475;28;20221;-51
2022/08/31 00:11:13;;;;;;;6.40;5.72;;;;;;;17.41;100.00;96734.13;5102951;28;20222;-50
2022/08/31 00:13:40;;;;;;;6.45;5.95;;;;;;;17.41;100.00;96748.34;5101866;28;20202;-50
2022/08/31 00:16:08;;;;;;;6.55;6.03;;;;;;;17.39;100.00;96744.19;5103544;28;20209;-50
2022/08/31 00:18:34;;;;;;;6.82;6.25;;;;;;;17.40;100.00;96737.81;5102581;28;20204;-51
2022/08/31 00:21:01;;;;;;;7.28;6.68;;;;;;;17.42;100.00;96741.16;5103365;28;20252;-51
2022/08/31 00:23:29;;;;;;;9.23;6.85;;;;;;;17.37;100.00;96738.19;5102872;28;20205;-50
2022/08/31 00:25:56;;;;;;;7.07;6.40;;;;;;;17.41;100.00;96740.31;5101981;28;20212;-51
2022/08/31 00:28:23;;;;;;;7.80;7.20;;;;;;;17.41;100.00;96743.00;5102309;28;20236;-50
2022/08/31 00:30:50;;;;;;;7.75;7.03;;;;;;;17.44;100.00;96741.78;5102818;28;20305;-50
2022/08/31 00:33:17;;;;;;;8.52;7.50;;;;;;;17.43;100.00;96735.59;5101587;28;20297;-52
2022/08/31 00:35:44;;;;;;;7.47;6.88;;;;;;;17.46;100.00;96729.09;5102813;28;20210;-51
2022/08/31 00:38:12;;;;;;;8.48;7.78;;;;;;;17.51;100.00;96731.19;5101229;28;20288;-52
2022/08/31 00:40:43;;;;;;;9.65;8.75;;;;;;;17.53;100.00;96722.00;5103117;28;20246;-51
2022/08/31 00:43:10;;;;;;;9.18;8.38;;;;;;;17.52;100.00;96722.16;5102747;28;20249;-51
2022/08/31 00:45:36;;;;;;;8.10;7.50;;;;;;;17.53;100.00;96722.00;5101047;28;20205;-51
2022/08/31 00:48:03;;;;;;;9.50;8.60;;;;;;;17.50;100.00;96721.53;5103145;28;20293;-51
2022/08/31 00:50:30;;;;;;;8.55;7.85;;;;;;;17.50;100.00;96718.84;5103212;28;20617;-51
2022/08/31 00:52:59;;;;;;;8.98;8.10;;;;;;;17.51;100.00;96718.66;5101525;28;20253;-49
2022/08/31 00:55:30;;;;;;;9.23;8.32;;;;;;;17.49;100.00;96723.38;5101140;28;20705;-51
2022/08/31 00:58:01;;;;;;;7.95;7.25;;;;;;;17.55;100.00;96716.44;5101509;28;20205;-50
2022/08/31 01:00:29;;;;;;;7.93;7.30;;;;;;;17.58;100.00;96714.25;5100806;28;20266;-51
2022/08/31 01:02:57;;;;;;;8.35;7.55;;;;;;;17.61;100.00;96716.56;5101375;28;20264;-50
2022/08/31 01:05:24;;;;;;;8.07;7.32;;;;;;;17.66;100.00;96710.66;5101255;28;20210;-51
2022/08/31 01:07:52;;;;;;;7.65;6.95;;;;;;;17.68;100.00;96716.66;5100823;28;20214;-50
2022/08/31 01:10:21;;;;;;;7.38;6.80;;;;;;;17.64;100.00;96724.22;5100822;28;20321;-50
2022/08/31 01:12:49;;;;;;;7.93;7.07;;;;;;;17.65;100.00;96723.19;5101469;28;20255;-51
2022/08/31 01:15:18;;;;;;;8.10;7.40;;;;;;;17.68;100.00;96725.50;5101468;28;20292;-51
2022/08/31 01:17:47;;;;;;;7.65;7.05;;;;;;;17.68;100.00;96727.34;5099773;28;20244;-51
2022/08/31 01:20:17;;;;;;;7.63;7.03;;;;;;;17.75;100.00;96726.44;5101456;28;20201;-52
2022/08/31 01:22:56;;;;;;;8.05;7.13;;;;;;;17.72;100.00;96726.81;5102810;28;20573;-50
2022/08/31 01:25:22;;;;;;;7.55;6.95;;;;;;;17.73;100.00;96728.47;5101299;28;20201;-51
2022/08/31 01:27:49;;;;;;;7.03;6.53;;;;;;;17.79;100.00;96727.72;5100706;28;20649;-50
2022/08/31 01:30:22;;;;;;;7.13;6.53;;;;;;;17.73;100.00;96736.50;5101615;28;20285;-50
2022/08/31 01:32:48;;;;;;;8.00;7.30;;;;;;;17.76;100.00;96738.78;5102340;28;20267;-50
2022/08/31 01:35:15;;;;;;;7.53;6.93;;;;;;;17.76;100.00;96733.44;5101721;28;20284;-51
2022/08/31 01:37:42;;;;;;;7.68;7.07;;;;;;;17.70;100.00;96738.72;5100411;28;20261;-50
2022/08/31 01:40:12;;;;;;;8.05;7.25;;;;;;;17.71;100.00;96740.38;5101461;28;20270;-51
2022/08/31 01:42:39;;;;;;;7.38;6.88;;;;;;;17.71;100.00;96743.84;5101279;28;20306;-51
2022/08/31 01:45:07;;;;;;;7.72;7.03;;;;;;;17.73;100.00;96747.19;5101795;28;20650;-51
2022/08/31 01:47:34;;;;;;;9.25;7.47;;;;;;;17.68;100.00;96746.06;5100880;28;20201;-51
2022/08/31 01:50:01;;;;;;;7.70;7.10;;;;;;;17.65;100.00;96741.09;5101377;28;20221;-51
2022/08/31 01:52:28;;;;;;;7.75;6.97;;;;;;;17.70;100.00;96744.88;5101020;28;20321;-50
2022/08/31 01:54:55;;;;;;;8.20;7.40;;;;;;;17.68;100.00;96744.22;5101728;28;20194;-50
2022/08/31 01:57:23;;;;;;;8.63;7.93;;;;;;;17.68;100.00;96744.22;5100718;28;20231;-51
2022/08/31 01:59:50;;;;;;;8.20;7.50;;;;;;;17.71;100.00;96743.84;5101933;28;20284;-52
2022/08/31 02:02:17;;;;;;;8.00;7.40;;;;;;;17.74;100.00;96750.69;5100747;28;20366;-52
2022/08/31 02:04:44;;;;;;;8.40;7.60;;;;;;;17.70;100.00;96744.88;5101617;28;20263;-51
2022/08/31 02:07:10;;;;;;;8.68;7.97;;;;;;;17.66;100.00;96748.94;5101450;28;20204;-50
2022/08/31 02:09:37;;;;;;;8.30;7.60;;;;;;;17.67;100.00;96745.25;5101652;28;20643;-50
2022/08/31 02:12:04;;;;;;;7.75;7.13;;;;;;;17.70;100.00;96744.06;5103668;28;20664;-50
2022/08/31 02:14:32;;;;;;;8.35;7.57;;;;;;;17.66;100.00;96743.59;5106590;28;20258;-50
2022/08/31 02:16:59;;;;;;;8.32;7.53;;;;;;;17.64;100.00;96756.31;5104514;28;20202;-51
2022/08/31 02:19:26;;;;;;;8.00;7.35;;;;;;;17.66;100.00;96748.94;5106109;28;20276;-52
2022/08/31 02:21:52;;;;;;;8.23;7.53;;;;;;;17.67;100.00;96761.31;5105953;28;20296;-51
2022/08/31 02:24:19;;;;;;;8.43;7.65;;;;;;;17.68;100.00;96759.44;5105557;28;20920;-51
2022/08/31 02:26:46;;;;;;;8.82;8.02;;;;;;;17.65;100.00;96757.97;5104696;28;20243;-51
2022/08/31 02:29:12;;;;;;;9.23;8.52;;;;;;;17.62;100.00;96758.34;5105006;28;20244;-51
2022/08/31 02:31:40;;;;;;;9.80;8.80;;;;;;;17.66;100.00;96758.81;5105313;28;20304;-51
2022/08/31 02:34:07;;;;;;;10.20;8.88;;;;;;;17.65;100.00;96763.31;5105200;28;20288;-51
2022/08/31 02:36:33;;;;;;;10.00;9.00;;;;;;;17.65;100.00;96752.63;5103593;28;20392;-50
2022/08/31 02:39:00;;;;;;;10.05;9.15;;;;;;;17.64;100.00;96761.66;5104848;28;20272;-51
2022/08/31 02:41:27;;;;;;;10.63;9.57;;;;;;;17.65;100.00;96762.50;5103845;28;20251;-51
2022/08/31 02:43:54;;;;;;;10.00;9.10;;;;;;;17.70;100.00;96754.75;5105292;28;20215;-51
2022/08/31 02:46:21;;;;;;;10.98;9.93;;;;;;;17.74;100.00;96762.22;5104433;28;20205;-49
2022/08/31 02:48:49;;;;;;;9.98;9.07;;;;;;;17.69;100.00;96763.78;5104768;28;20212;-50
2022/08/31 02:51:16;;;;;;;10.10;9.30;;;;;;;17.67;100.00;96766.66;5104044;28;20331;-50
2022/08/31 02:53:42;;;;;;;11.60;10.50;;;;;;;17.66;100.00;96762.31;5105915;28;20486;-49
2022/08/31 02:56:10;;;;;;;11.20;10.18;;;;;;;17.68;100.00;96765.63;5103097;28;20207;-50
2022/08/31 02:58:36;;;;;;;10.63;9.73;;;;;;;17.66;100.00;96769.50;5104886;28;20237;-52
2022/08/31 03:01:04;;;;;;;10.82;9.80;;;;;;;17.69;100.00;96771.81;5104396;28;20288;-50
2022/08/31 03:03:30;;;;;;;10.40;9.40;;;;;;;17.70;100.00;96771.63;5104433;28;20710;-50
2022/08/31 03:05:58;;;;;;;10.63;9.40;;;;;;;17.71;100.00;96767.94;5104854;28;20282;-50
2022/08/31 03:08:25;;;;;;;10.32;9.30;;;;;;;17.69;100.00;96772.66;5104252;28;20299;-51
2022/08/31 03:10:52;;;;;;;10.63;9.60;;;;;;;17.71;100.00;96775.94;5103261;28;20282;-50
2022/08/31 03:13:20;;;;;;;10.48;9.48;;;;;;;17.73;100.00;96767.75;5105053;28;20637;-50
2022/08/31 03:15:46;;;;;;;10.43;9.52;;;;;;;17.74;100.00;96769.44;5105486;28;20717;-50
2022/08/31 03:18:13;;;;;;;10.80;9.60;;;;;;;17.73;100.00;96768.59;5106592;28;20213;-50
2022/08/31 03:20:40;;;;;;;10.25;9.30;;;;;;;17.74;100.00;96772.09;5107565;28;20225;-50
2022/08/31 03:23:08;;;;;;;10.35;9.40;;;;;;;17.73;100.00;96771.25;5125224;28;20193;-50
2022/08/31 03:25:35;;;;;;;9.73;8.98;;;;;;;17.74;100.00;96762.22;5134862;28;20204;-51
2022/08/31 03:28:01;;;;;;;10.80;9.70;;;;;;;17.74;100.00;96762.22;5126019;27;20204;-50
2022/08/31 03:30:28;;;;;;;10.75;9.75;;;;;;;17.72;100.00;96764.25;5130849;28;20212;-52
2022/08/31 03:32:55;;;;;;;11.43;10.30;;;;;;;17.70;100.00;96766.28;5132310;28;20197;-51
2022/08/31 03:35:22;;;;;;;11.15;10.13;;;;;;;17.73;100.00;96773.94;5126660;28;20225;-51
2022/08/31 03:37:49;;;;;;;11.18;10.10;;;;;;;17.71;100.00;96767.94;5124797;28;20285;-50
2022/08/31 03:40:17;;;;;;;10.68;9.40;;;;;;;17.72;100.00;96774.94;5122135;28;20239;-51
2022/08/31 03:42:44;;;;;;;9.88;9.07;;;;;;;17.74;100.00;96764.91;5122253;28;20201;-50
2022/08/31 03:45:12;;;;;;;10.48;9.35;;;;;;;17.74;100.00;96772.09;5130231;28;20194;-50
2022/08/31 03:47:40;;;;;;;9.10;8.30;;;;;;;17.71;100.00;96770.59;5107391;28;20201;-53
2022/08/31 03:50:09;;;;;;;8.98;7.95;;;;;;;17.68;100.00;96768.28;5102389;28;20221;-52
2022/08/31 03:52:36;;;;;;;9.02;8.23;;;;;;;17.71;100.00;96767.94;5102957;28;20219;-51
2022/08/31 03:55:03;;;;;;;9.10;8.32;;;;;;;17.71;100.00;96770.59;5103332;28;20646;-50
2022/08/31 03:57:31;;;;;;;9.20;8.27;;;;;;;17.70;100.00;96776.16;5101890;28;20237;-50
2022/08/31 04:00:00;;;;;;;9.00;8.18;;;;;;;17.69;100.00;96772.66;5102587;28;20674;-49
2022/08/31 04:02:27;;;;;;;9.77;8.93;;;;;;;17.69;100.00;96774.47;5102951;28;20209;-51
2022/08/31 04:04:54;;;;;;;9.80;8.85;;;;;;;17.69;100.00;96778.00;5102566;28;20292;-50
2022/08/31 04:07:21;;;;;;;9.57;8.73;;;;;;;17.68;100.00;96773.66;5102142;28;20236;-50
2022/08/31 04:09:48;;;;;;;10.32;9.43;;;;;;;17.72;100.00;96782.13;5101987;28;20296;-50
2022/08/31 04:12:16;;;;;;;10.25;9.45;;;;;;;17.71;100.00;96783.97;5101721;28;20363;-51
2022/08/31 04:14:44;;;;;;;10.27;9.30;;;;;;;17.74;100.00;96780.97;5101695;28;20228;-51
2022/08/31 04:17:12;;;;;;;9.95;9.13;;;;;;;17.78;100.00;96768.84;5101689;28;20232;-51
2022/08/31 04:19:40;;;;;;;10.70;9.70;;;;;;;17.79;100.00;96769.69;5101274;28;20236;-51
2022/08/31 04:22:07;;;;;;;11.77;10.77;;;;;;;17.79;100.00;96772.34;5102360;28;20209;-49
2022/08/31 04:24:37;;;;;;;12.63;11.43;;;;;;;17.79;100.00;96775.03;5102552;28;20307;-51
2022/08/31 04:27:04;;;;;;;11.73;10.73;;;;;;;17.83;100.00;96770.97;5101351;28;20201;-52
2022/08/31 04:29:31;;;;;;;11.65;10.55;;;;;;;17.85;100.00;96772.44;5101370;28;20304;-51
2022/08/31 04:31:59;;;;;;;10.80;9.80;;;;;;;17.88;100.00;96774.78;5100967;28;20267;-51
2022/08/31 04:34:26;;;;;;;12.82;11.60;;;;;;;17.88;100.00;96774.78;5101589;28;20280;-51
2022/08/31 04:36:52;;;;;;;13.30;12.02;;;;;;;17.85;100.00;96769.78;5101821;28;20603;-51
2022/08/31 04:39:19;;;;;;;12.43;11.32;;;;;;;17.85;100.00;96772.44;5100238;28;20324;-51
2022/08/31 04:41:46;;;;;;;13.27;11.73;;;;;;;17.83;100.00;96771.81;5101616;28;20630;-50
2022/08/31 04:44:14;;;;;;;12.68;11.43;;;;;;;17.87;100.00;96775.78;5100904;28;20293;-49
2022/08/31 04:46:41;;;;;;;12.60;11.43;;;;;;;17.89;100.00;96771.06;5101002;28;20612;-51
2022/08/31 04:49:10;;;;;;;12.60;11.48;;;;;;;17.90;100.00;96772.72;5100194;28;20208;-51
2022/08/31 04:51:38;;;;;;;12.32;11.23;;;;;;;17.90;100.00;96777.25;5101220;27;20308;-50
2022/08/31 04:54:06;;;;;;;13.48;12.27;;;;;;;17.89;100.00;96778.25;5101359;28;20301;-51
2022/08/31 04:56:35;;;;;;;12.80;11.60;;;;;;;17.88;100.00;96779.28;5101161;28;20247;-50
2022/08/31 04:59:07;;;;;;;13.35;12.15;;;;;;;17.89;100.00;96781.75;5100763;28;20197;-52
2022/08/31 05:01:37;;;;;;;12.50;11.48;;;;;;;17.90;100.00;96779.94;5101448;28;20194;-49
2022/08/31 05:04:04;;;;;;;14.20;12.60;;;;;;;17.88;100.00;96785.47;5100664;28;20201;-50
2022/08/31 05:06:34;;;;;;;13.98;12.70;;;;;;;17.87;100.00;96782.97;5101351;28;20304;-50
2022/08/31 05:09:04;;;;;;;12.32;11.23;;;;;;;17.87;100.00;96783.81;5100334;28;20368;-50
2022/08/31 05:11:30;;;;;;;12.30;11.20;;;;;;;17.85;100.00;96780.47;5101584;28;20578;-50
2022/08/31 05:13:58;;;;;;;12.43;11.32;;;;;;;17.83;100.00;96787.03;5100782;28;20288;-49
2022/08/31 05:16:25;;;;;;;11.93;10.82;;;;;;;17.79;100.00;96783.06;5101427;28;20288;-50
2022/08/31 05:18:52;;;;;;;10.23;9.30;;;;;;;17.78;100.00;96782.22;5100304;28;20539;-52
2022/08/31 05:21:26;;;;;;;10.80;9.90;;;;;;;17.73;100.00;96786.47;5098576;28;20295;-50
2022/08/31 05:23:56;;;;;;;10.50;9.65;;;;;;;17.74;100.00;96788.97;5101845;28;20193;-51
2022/08/31 05:26:25;;;;;;;10.07;9.05;;;;;;;17.77;100.00;96787.78;5099618;28;20882;-51
2022/08/31 05:28:52;;;;;;;9.32;8.55;;;;;;;17.78;100.00;96790.25;5100963;28;20232;-50
2022/08/31 05:31:20;;;;;;;9.60;8.75;;;;;;;17.74;100.00;96793.50;5100232;28;20612;-52
2022/08/31 05:33:46;;;;;;;8.68;7.88;;;;;;;17.72;100.00;96787.47;5100863;28;20673;-51
2022/08/31 05:36:14;;;;;;;8.80;8.00;;;;;;;17.70;100.00;96793.03;5100730;28;20233;-51
2022/08/31 05:38:41;;;;;;;8.75;7.45;;;;;;;17.73;100.00;96802.53;5098713;28;20225;-50
2022/08/31 05:41:10;;;;;;;9.70;9.00;;;;;;;17.77;100.00;96801.16;5099572;28;20281;-50
2022/08/31 05:43:37;;;;;;;10.50;9.60;;;;;;;17.73;100.00;96798.00;5100591;28;20249;-50
2022/08/31 05:46:05;;;;;;;10.18;9.38;;;;;;;17.75;100.00;96795.13;5100189;28;20209;-50
2022/08/31 05:48:33;;;;;;;11.15;10.20;;;;;;;17.77;100.00;96801.16;5100385;28;20689;-50
2022/08/31 05:51:02;;;;;;;11.05;10.05;;;;;;;17.76;100.00;96811.00;5100827;28;20300;-51
2022/08/31 05:53:29;;;;;;;10.18;9.23;;;;;;;17.76;100.00;96807.50;5100830;28;20709;-52
2022/08/31 05:56:00;;;;;;;9.70;8.95;;;;;;;17.78;100.00;96806.28;5101277;28;21407;-51
2022/08/31 05:58:28;;;;;;;9.18;8.38;;;;;;;17.79;100.00;96807.97;5100151;28;20550;-51
2022/08/31 06:00:55;;;;;;;10.45;8.95;;;;;;;17.81;100.00;96803.28;5100922;28;20280;-51
2022/08/31 06:03:22;;;;;;;11.15;9.40;;;;;;;17.84;100.00;96805.59;5099674;28;20726;-51
2022/08/31 06:05:50;;;;;;;9.55;8.63;;;;;;;17.87;100.00;96810.56;5099582;28;20281;-51
2022/08/31 06:08:16;;;;;;;9.50;8.52;;;;;;;17.86;100.00;96808.91;5099604;28;20206;-50
2022/08/31 06:10:43;;;;;;;8.95;8.23;;;;;;;17.87;100.00;96812.41;5100041;28;20213;-51
2022/08/31 06:13:10;;;;;;;17.45;8.73;;;;;;;17.83;100.00;96814.63;5101708;28;20219;-51
2022/08/31 06:15:38;;;;;;;8.90;7.68;;;;;;;17.81;100.00;96811.31;5100835;28;20201;-49
2022/08/31 06:18:06;;;;;;;10.65;7.18;;;;;;;17.88;100.00;96816.75;5101538;28;20208;-50
2022/08/31 06:20:36;;;;;;;8.27;7.68;;;;;;;17.92;100.00;96809.19;5100650;28;20201;-50
2022/08/31 06:23:04;;;;;;;7.25;6.63;;;;;;;17.86;100.00;96819.59;5100582;28;20206;-50
2022/08/31 06:25:32;;;;;;;6.88;6.38;;;;;;;17.86;100.00;96814.25;5102099;28;20267;-51
2022/08/31 06:27:59;;;;;;;7.40;6.75;;;;;;;17.87;100.00;96820.44;5102290;28;20197;-50
2022/08/31 06:30:26;;;;;;;5.72;5.32;;;;;;;17.86;100.00;96819.59;5104485;28;20666;-52
2022/08/31 06:32:54;;;;;;;7.32;6.18;;;;;;;17.80;100.00;96822.19;5100140;28;20291;-51
2022/08/31 06:35:21;;;;;;;4.88;4.38;;;;;;;17.86;100.00;96822.28;5100952;28;20198;-53
2022/08/31 06:37:48;;;;;;;4.63;4.07;;;;;;;17.78;100.00;96819.69;5099278;28;20615;-49
2022/08/31 06:40:16;;;;;;;5.05;4.05;;;;;;;17.73;100.00;96824.75;5099933;28;20201;-50
2022/08/31 06:42:43;;;;;;;5.45;3.60;;;;;;;17.75;100.00;96825.41;5099824;28;20201;-51
2022/08/31 06:45:11;;;;;;;9.18;4.63;;;;;;;17.70;100.00;96825.13;5100546;28;20292;-50
2022/08/31 06:47:37;;;;;;;9.32;4.30;;;;;;;17.66;100.00;96829.19;5100696;28;20742;-50
2022/08/31 06:50:07;;;;;;;4.25;3.85;;;;;;;17.61;100.00;96830.72;5099499;28;20289;-51
2022/08/31 06:52:34;;;;;;;5.43;4.18;;;;;;;17.57;100.00;96834.81;5100431;28;20222;-52
2022/08/31 06:55:01;;;;;;;8.52;5.05;;;;;;;17.59;100.00;96838.13;5100342;28;20297;-51
2022/08/31 06:57:28;;;;;;;7.38;4.25;;;;;;;17.61;100.00;96833.41;5100648;28;20284;-51
2022/08/31 06:59:54;;;;;;;5.82;4.35;;;;;;;17.61;100.00;96830.72;5103994;28;20283;-51
2022/08/31 07:02:21;;;;;;;8.93;4.28;;;;;;;17.57;100.00;96835.59;5103767;28;20240;-50
2022/08/31 07:04:48;;;;;;;8.50;3.60;;;;;;;17.58;100.00;96833.75;5104454;28;20292;-51
2022/08/31 07:07:17;;;;;;;4.88;4.40;;;;;;;17.58;100.00;96841.78;5103364;28;20285;-50
2022/08/31 07:09:44;;;;;;;4.60;4.20;;;;;;;17.57;100.00;96840.94;5105623;28;20273;-50
2022/08/31 07:12:10;;;;;;;4.28;3.88;;;;;;;17.54;100.00;96851.97;5103459;28;20316;-50
2022/08/31 07:14:37;;;;;;;6.35;4.05;;;;;;;17.56;100.00;96855.34;5104222;28;20305;-50
2022/08/31 07:17:07;;;;;;;4.55;4.15;;;;;;;17.54;100.00;96851.97;5103918;28;20293;-51
2022/08/31 07:19:33;;;;;;;4.38;4.07;;;;;;;17.52;100.00;96853.19;5104322;28;20198;-51
2022/08/31 07:22:01;;;;;;;5.18;3.90;;;;;;;17.54;100.00;96851.97;5103727;28;20285;-51
2022/08/31 07:24:32;;;;;;;4.10;3.80;;;;;;;17.52;100.00;96851.34;5102999;28;20237;-50
2022/08/31 07:27:01;;;;;;;4.65;4.25;;;;;;;17.49;100.00;96853.56;5103229;28;20197;-50
2022/08/31 07:29:32;;;;;;;3.95;3.70;;;;;;;17.46;100.00;96860.09;5103430;28;20241;-51
2022/08/31 07:32:00;;;;;;;7.68;4.15;;;;;;;17.40;100.00;96858.13;5103554;28;20235;-51
2022/08/31 07:34:28;;;;;;;8.77;5.30;;;;;;;17.45;100.00;96869.13;5103308;28;21063;-52
2022/08/31 07:42:29;;;;;;;11.40;4.35;;;;;;;17.44;100.00;96867.44;5102639;28;20196;-52
2022/08/31 07:44:58;;;;;;;7.00;4.50;;;;;;;17.39;100.00;96872.53;5102779;28;20292;-50
2022/08/31 07:47:27;;;;;;;5.85;4.15;;;;;;;17.44;100.00;96867.44;5103505;28;20293;-51
2022/08/31 07:49:55;;;;;;;5.68;4.07;;;;;;;17.47;100.00;96872.44;5102120;28;20212;-50
2022/08/31 07:52:24;;;;;;;9.88;4.05;;;;;;;17.39;100.00;96875.19;5102337;28;20217;-51
2022/08/31 07:54:54;;;;;;;4.95;4.20;;;;;;;17.42;100.00;96882.84;5102796;28;20292;-51
2022/08/31 07:57:24;;;;;;;4.57;4.28;;;;;;;17.43;100.00;96879.16;5103144;28;20194;-51
2022/08/31 07:59:54;;;;;;;4.30;4.00;;;;;;;17.45;100.00;96882.50;5102658;28;20280;-51
2022/08/31 08:02:22;;;;;;;4.72;4.28;;;;;;;17.41;100.00;96883.84;5102928;28;20207;-51
2022/08/31 08:04:52;;;;;;;4.30;4.00;;;;;;;17.49;100.00;96885.63;5102030;28;20206;-51
2022/08/31 08:07:18;;;;;;;5.30;4.40;;;;;;;17.46;100.00;96894.84;5102929;28;20212;-51
2022/08/31 08:09:45;;;;;;;4.40;4.10;;;;;;;17.40;100.00;96895.56;5103138;28;20606;-51
2022/08/31 08:12:14;;;;;;;4.60;4.20;;;;;;;17.38;100.00;96890.41;5102522;28;20225;-52
2022/08/31 08:14:40;;;;;;;6.53;4.22;;;;;;;17.39;100.00;96891.25;5103533;28;20632;-52
2022/08/31 08:17:08;;;;;;;4.50;4.20;;;;;;;17.39;100.00;96896.59;5102997;28;20233;-52
2022/08/31 08:19:35;;;;;;;6.40;4.22;;;;;;;17.41;100.00;96894.56;5102163;27;20600;-51
2022/08/31 08:22:03;;;;;;;4.70;4.30;;;;;;;17.27;100.00;96898.84;5102697;28;20247;-51
2022/08/31 08:24:30;;;;;;;6.38;4.60;;;;;;;17.30;100.00;96901.16;5102431;28;20335;-51
2022/08/31 08:26:57;;;;;;;13.13;5.53;;;;;;;17.30;100.00;96903.00;5101138;28;20483;-51
2022/08/31 08:29:25;;;;;;;7.57;4.25;;;;;;;17.19;100.00;96900.72;5102293;28;20288;-51
2022/08/31 08:31:52;;;;;;;5.00;4.60;;;;;;;17.23;100.00;96908.22;5102027;28;20224;-50
2022/08/31 08:34:20;;;;;;;10.45;5.63;;;;;;;17.27;100.00;96906.03;5102041;28;20197;-50
2022/08/31 08:36:47;;;;;;;8.35;5.20;;;;;;;17.30;100.00;96903.81;5102254;28;20232;-51
2022/08/31 08:39:15;;;;;;;6.45;4.85;;;;;;;17.32;100.00;96904.47;5101183;28;20256;-51
2022/08/31 08:41:44;;;;;;;16.00;5.60;;;;;;;17.41;100.00;96910.59;5101801;28;20220;-53
2022/08/31 08:44:12;;;;;;;9.88;6.18;;;;;;;17.35;100.00;96916.66;5101828;28;20248;-51
2022/08/31 08:46:47;;;;;;;8.32;5.03;;;;;;;17.35;100.00;96914.81;5102227;28;20240;-53
2022/08/31 08:49:20;;;;;;;6.00;5.10;;;;;;;17.39;100.00;96912.63;5101720;28;20197;-51
2022/08/31 08:51:50;;;;;;;5.18;4.78;;;;;;;17.32;100.00;96914.34;5101958;28;20305;-51
2022/08/31 08:54:24;;;;;;;5.57;5.00;;;;;;;17.36;100.00;96915.63;5102107;28;20232;-49
2022/08/31 08:56:51;;;;;;;5.22;4.82;;;;;;;17.42;100.00;96922.97;5101738;28;20293;-51
2022/08/31 08:59:18;;;;;;;6.65;4.90;;;;;;;17.39;100.00;96921.44;5101302;28;20232;-52
2022/08/31 09:01:48;;;;;;;5.28;4.88;;;;;;;17.35;100.00;96922.84;5101246;28;20327;-51
2022/08/31 09:04:23;;;;;;;5.32;4.90;;;;;;;17.30;100.00;96921.69;5101672;28;20608;-51
2022/08/31 09:06:55;;;;;;;4.93;4.55;;;;;;;17.29;100.00;96923.53;5100786;28;20201;-52
2022/08/31 09:09:33;;;;;;;6.30;5.13;;;;;;;17.31;100.00;96926.03;5101347;28;20309;-51
2022/08/31 09:12:10;;;;;;;4.95;4.63;;;;;;;17.36;100.00;96924.50;5100810;28;20214;-51
2022/08/31 09:14:47;;;;;;;5.53;5.10;;;;;;;17.37;100.00;96931.50;5101319;28;20292;-51
2022/08/31 09:17:23;;;;;;;5.25;4.85;;;;;;;17.38;100.00;96938.53;5101354;28;20556;-50
2022/08/31 09:20:00;;;;;;;4.82;4.43;;;;;;;17.40;100.00;96932.97;5100631;28;20297;-50
2022/08/31 09:22:27;;;;;;;8.10;5.88;;;;;;;17.35;100.00;96938.06;5100382;28;20192;-51
2022/08/31 09:24:58;;;;;;;6.35;5.85;;;;;;;17.36;100.00;96942.38;5100851;28;20293;-50
2022/08/31 09:27:44;;;;;;;6.53;5.40;;;;;;;17.27;100.00;96935.44;5100819;28;20194;-51
2022/08/31 09:30:13;;;;;;;5.68;5.28;;;;;;;17.36;100.00;96937.03;5101407;28;20212;-51
2022/08/31 09:32:53;;;;;;;5.38;4.88;;;;;;;17.42;100.00;96934.50;5101214;28;20677;-50
2022/08/31 09:35:24;;;;;;;5.97;5.47;;;;;;;17.48;100.00;96938.28;5101385;28;20202;-51
2022/08/31 09:37:58;;;;;;;5.97;5.40;;;;;;;17.52;100.00;96934.25;5100806;28;20260;-50
2022/08/31 09:40:38;;;;;;;7.72;5.47;;;;;;;17.51;100.00;96926.38;5100961;28;20234;-51
2022/08/31 09:43:09;;;;;;;5.03;4.63;;;;;;;17.57;100.00;96931.06;5101059;28;20202;-52
2022/08/31 09:45:38;;;;;;;6.15;5.55;;;;;;;17.61;100.00;96927.84;5100525;28;20297;-51
2022/08/31 09:48:07;;;;;;;5.93;5.43;;;;;;;17.68;100.00;96926.09;5100270;28;20666;-50
2022/08/31 09:50:39;;;;;;;5.88;5.45;;;;;;;17.74;100.00;96929.91;5100713;28;20228;-50
2022/08/31 09:56:12;;;;;;;6.10;5.60;;;;;;;17.74;100.00;96932.59;5099754;28;20192;-51
2022/08/31 09:58:40;;;;;;;5.93;5.43;;;;;;;17.80;100.00;96929.19;5100362;28;20261;-51
2022/08/31 10:01:13;;;;;;;6.05;5.65;;;;;;;17.94;100.00;96927.56;5101480;28;20216;-50
2022/08/31 10:03:46;;;;;;;5.95;5.35;;;;;;;18.00;100.00;96932.16;5099658;28;20259;-52
2022/08/31 10:06:44;;;;;;;5.82;5.43;;;;;;;18.04;100.00;96930.78;5100406;28;20277;-51
2022/08/31 10:09:17;;;;;;;6.25;5.75;;;;;;;18.08;100.00;96919.56;5095766;28;20289;-52
2022/08/31 10:11:46;;;;;;;6.00;5.50;;;;;;;18.13;100.00;96910.97;5099910;28;20194;-50
2022/08/31 10:14:33;;;;;;;7.50;5.50;;;;;;;18.08;100.00;96913.34;5099657;28;20618;-51
2022/08/31 10:17:04;;;;;;;6.18;5.65;;;;;;;18.07;100.00;96911.69;5100147;28;20212;-50
2022/08/31 10:19:42;;;;;;;5.57;5.10;;;;;;;18.12;100.00;96918.19;5100975;28;20289;-51
2022/08/31 10:22:24;;;;;;;5.75;5.25;;;;;;;18.16;100.00;96921.31;5101064;28;20236;-52
2022/08/31 10:25:13;;;;;;;5.32;4.80;;;;;;;18.20;100.00;96915.41;5100704;28;20211;-51
2022/08/31 10:27:46;;;;;;;5.43;5.03;;;;;;;18.20;100.00;96918.09;5100261;28;20193;-52
2022/08/31 10:30:22;;;;;;;5.57;5.05;;;;;;;18.19;100.00;96918.25;5100005;28;20477;-51
2022/08/31 10:32:54;;;;;;;5.93;5.38;;;;;;;18.24;100.00;96924.75;5102292;28;20265;-50
2022/08/31 10:35:24;;;;;;;5.80;5.30;;;;;;;18.21;100.00;96924.28;5104666;28;20292;-52
2022/08/31 10:37:56;;;;;;;6.65;5.55;;;;;;;18.13;100.00;96927.88;5104248;28;20332;-51
2022/08/31 10:40:28;;;;;;;6.53;5.95;;;;;;;18.15;100.00;96925.00;5103837;28;20268;-50
2022/08/31 10:43:08;;;;;;;5.75;5.25;;;;;;;18.20;100.00;96922.63;5104995;28;20209;-50
2022/08/31 10:45:41;;;;;;;6.00;5.50;;;;;;;18.21;100.00;96918.94;5104930;28;20250;-53
2022/08/31 10:48:09;;;;;;;5.85;5.20;;;;;;;18.21;100.00;96919.75;5104013;28;20619;-50
2022/08/31 10:50:52;;;;;;;5.80;5.40;;;;;;;18.23;100.00;96916.91;5103461;28;20212;-52
2022/08/31 10:53:33;;;;;;;5.43;4.93;;;;;;;18.23;100.00;96916.91;5103925;28;20213;-51
2022/08/31 10:56:13;;;;;;;5.32;4.93;;;;;;;18.20;100.00;96909.22;5103131;28;20197;-51
2022/08/31 10:58:46;;;;;;;5.28;4.88;;;;;;;18.17;100.00;96913.13;5104315;28;20201;-50
2022/08/31 11:01:18;;;;;;;4.85;4.47;;;;;;;18.24;100.00;96902.50;5103868;28;20221;-51
2022/08/31 11:03:57;;;;;;;5.38;4.93;;;;;;;18.30;100.00;96901.75;5104330;28;20217;-51
2022/08/31 11:06:30;;;;;;;5.25;4.85;;;;;;;18.37;100.00;96900.00;5105752;28;20229;-50
2022/08/31 11:09:03;;;;;;;5.53;5.13;;;;;;;18.49;100.00;96901.22;5103578;28;20201;-50
2022/08/31 11:11:35;;;;;;;5.28;4.82;;;;;;;18.56;100.00;96894.13;5104314;28;20272;-50
2022/08/31 11:14:26;;;;;;;5.18;4.82;;;;;;;18.61;100.00;96891.69;5104334;28;20224;-51
2022/08/31 11:17:28;;;;;;;5.53;5.13;;;;;;;18.67;100.00;96887.44;5100688;28;20202;-51
2022/08/31 11:20:18;;;;;;;5.32;4.78;;;;;;;18.88;100.00;96884.81;5103816;28;21354;-51
2022/08/31 11:23:11;;;;;;;6.95;5.93;;;;;;;19.12;100.00;96878.28;5103904;28;20314;-52
2022/08/31 11:26:25;;;;;;;5.07;4.68;;;;;;;19.29;100.00;96877.00;5103332;28;20229;-51
2022/08/31 11:28:55;;;;;;;5.60;5.05;;;;;;;19.45;100.00;96874.06;5105107;28;20201;-52
2022/08/31 11:31:26;;;;;;;4.70;4.40;;;;;;;19.59;100.00;96878.53;5105305;28;20285;-53
2022/08/31 11:33:55;;;;;;;5.13;4.72;;;;;;;19.68;100.00;96872.00;5107185;28;20599;-51
2022/08/31 11:36:42;;;;;;;5.25;4.85;;;;;;;19.71;99.28;96868.94;5120251;28;20202;-50
2022/08/31 11:39:35;;;;;;;4.93;4.45;;;;;;;19.80;99.37;96870.44;5124133;28;20251;-50
2022/08/31 11:42:03;;;;;;;5.10;4.70;;;;;;;19.98;98.23;96861.09;5125191;28;20197;-51
2022/08/31 11:45:05;;;;;;;5.82;5.30;;;;;;;20.06;97.41;96868.97;5126006;28;20193;-51
2022/08/31 11:47:45;;;;;;;5.72;4.60;;;;;;;20.31;98.36;96859.47;5116642;28;20216;-52